createdAt,value
2022-11-13T00:00:35.382Z,2.17
2022-11-13T00:03:03.325Z,2.55
2022-11-13T00:05:31.362Z,2.22
2022-11-13T00:07:59.252Z,2.13
2022-11-13T00:10:28.527Z,2.40
2022-11-13T00:12:56.734Z,2.35
2022-11-13T00:15:24.608Z,2.50
2022-11-13T00:17:52.501Z,1.92
2022-11-13T00:20:21.804Z,2.05
2022-11-13T00:22:49.682Z,2.28
2022-11-13T00:25:17.532Z,2.47
2022-11-13T00:27:46.956Z,2.25
2022-11-13T00:30:19.251Z,2.40
2022-11-13T00:32:47.710Z,2.20
2022-11-13T00:35:15.678Z,2.03
2022-11-13T00:37:43.532Z,2.25
2022-11-13T00:40:12.317Z,1.95
2022-11-13T00:42:40.203Z,2.05
2022-11-13T00:45:10.216Z,2.00
2022-11-13T00:47:38.445Z,2.50
2022-11-13T00:50:07.031Z,2.38
2022-11-13T00:52:34.944Z,2.50
2022-11-13T00:55:03.062Z,2.03
2022-11-13T00:57:30.969Z,1.70
2022-11-13T00:59:58.839Z,2.13
2022-11-13T01:02:28.319Z,1.98
2022-11-13T01:04:56.246Z,2.38
2022-11-13T01:07:24.301Z,1.90
2022-11-13T01:09:52.893Z,1.88
2022-11-13T01:12:20.761Z,2.28
2022-11-13T01:14:48.735Z,2.05
2022-11-13T01:17:16.793Z,2.15
2022-11-13T01:19:46.107Z,2.10
2022-11-13T01:22:13.950Z,2.53
2022-11-13T01:24:42.218Z,2.05
2022-11-13T01:27:10.080Z,1.95
2022-11-13T01:29:39.111Z,2.30
2022-11-13T01:32:07.220Z,2.20
2022-11-13T01:34:35.291Z,2.13
2022-11-13T01:37:04.742Z,2.70
2022-11-13T01:39:33.048Z,2.50
2022-11-13T01:42:02.367Z,2.08
2022-11-13T01:44:52.256Z,1.90
2022-11-13T01:47:21.514Z,2.45
2022-11-13T01:49:52.305Z,2.17
2022-11-13T01:52:24.215Z,1.90
2022-11-13T01:54:55.391Z,2.50
2022-11-13T01:57:23.932Z,2.28
2022-11-13T01:59:56.725Z,2.30
2022-11-13T02:02:24.558Z,2.20
2022-11-13T02:04:53.226Z,2.80
2022-11-13T02:07:23.663Z,2.13
2022-11-13T02:09:53.506Z,2.30
2022-11-13T02:12:26.702Z,2.25
2022-11-13T02:14:56.303Z,2.13
2022-11-13T02:17:27.715Z,2.72
2022-11-13T02:19:59.567Z,2.28
2022-11-13T02:22:35.388Z,2.17
2022-11-13T02:25:06.387Z,2.28
2022-11-13T02:27:37.667Z,2.13
2022-11-13T02:30:19.798Z,2.25
2022-11-13T02:32:52.050Z,2.03
2022-11-13T02:35:25.407Z,2.03
2022-11-13T02:37:53.855Z,1.85
2022-11-13T02:40:23.633Z,1.95
2022-11-13T02:42:51.823Z,2.22
2022-11-13T02:45:20.222Z,2.38
2022-11-13T02:47:48.208Z,2.05
2022-11-13T02:50:16.673Z,2.38
2022-11-13T02:52:44.876Z,2.45
2022-11-13T02:55:12.819Z,2.20
2022-11-13T02:57:42.151Z,3.00
2022-11-13T03:00:14.042Z,2.83
2022-11-13T03:02:42.440Z,3.40
2022-11-13T03:05:12.887Z,3.05
2022-11-13T03:07:42.044Z,2.50
2022-11-13T03:10:11.422Z,2.53
2022-11-13T03:12:41.067Z,2.47
2022-11-13T03:15:10.241Z,2.35
2022-11-13T03:17:38.124Z,2.97
2022-11-13T03:20:07.967Z,2.70
2022-11-13T03:22:36.047Z,2.42
2022-11-13T03:25:09.851Z,2.80
2022-11-13T03:27:38.981Z,2.75
2022-11-13T03:30:09.931Z,3.10
2022-11-13T03:32:37.847Z,2.90
2022-11-13T03:35:06.806Z,3.20
2022-11-13T03:37:34.662Z,2.90
2022-11-13T03:40:02.599Z,2.90
2022-11-13T03:42:30.664Z,3.05
2022-11-13T03:44:58.549Z,2.80
2022-11-13T03:47:27.827Z,3.00
2022-11-13T03:49:55.873Z,3.20
2022-11-13T03:52:23.797Z,2.78
2022-11-13T03:54:51.634Z,3.15
2022-11-13T03:57:20.120Z,2.90
2022-11-13T03:59:48.034Z,2.95
2022-11-13T04:02:16.397Z,2.70
2022-11-13T04:04:46.030Z,2.90
2022-11-13T04:07:16.251Z,3.65
2022-11-13T04:09:44.170Z,3.13
2022-11-13T04:12:12.338Z,3.35
2022-11-13T04:14:40.370Z,2.90
2022-11-13T04:17:09.356Z,2.90
2022-11-13T04:19:37.434Z,3.33
2022-11-13T04:22:06.744Z,2.70
2022-11-13T04:24:34.844Z,2.70
2022-11-13T04:27:02.903Z,2.80
2022-11-13T04:29:30.856Z,2.92
2022-11-13T04:31:58.785Z,2.60
2022-11-13T04:34:26.898Z,3.25
2022-11-13T04:36:54.882Z,2.60
2022-11-13T04:39:24.165Z,2.65
2022-11-13T04:42:10.082Z,2.70
2022-11-13T04:44:37.984Z,2.60
2022-11-13T04:47:06.163Z,3.00
2022-11-13T04:49:34.113Z,2.60
2022-11-13T04:52:01.990Z,3.20
2022-11-13T04:54:31.395Z,2.95
2022-11-13T04:56:59.334Z,2.63
2022-11-13T04:59:27.181Z,3.30
2022-11-13T05:01:56.205Z,3.03
2022-11-13T05:04:24.288Z,3.05
2022-11-13T05:06:52.299Z,2.78
2022-11-13T05:09:20.388Z,2.80
2022-11-13T05:11:49.797Z,3.25
2022-11-13T05:14:17.771Z,3.05
2022-11-13T05:16:45.874Z,3.10
2022-11-13T05:19:13.912Z,3.63
2022-11-13T05:21:41.822Z,3.17
2022-11-13T05:24:11.928Z,2.90
2022-11-13T05:26:40.557Z,3.00
2022-11-13T05:29:09.909Z,3.10
2022-11-13T05:31:37.821Z,2.92
2022-11-13T05:34:06.368Z,3.40
2022-11-13T05:36:34.331Z,2.97
2022-11-13T05:39:02.488Z,2.95
2022-11-13T05:41:30.721Z,2.97
2022-11-13T05:43:59.989Z,2.80
2022-11-13T05:46:31.504Z,3.33
2022-11-13T05:49:01.364Z,3.17
2022-11-13T05:51:31.280Z,2.85
2022-11-13T05:53:59.541Z,3.00
2022-11-13T05:56:28.897Z,3.85
2022-11-13T05:58:57.407Z,3.63
2022-11-13T06:01:28.027Z,3.35
2022-11-13T06:03:58.919Z,3.22
2022-11-13T06:06:28.060Z,3.10
2022-11-13T06:08:57.615Z,2.97
2022-11-13T06:11:27.336Z,3.10
2022-11-13T06:13:56.380Z,3.15
2022-11-13T06:16:26.275Z,3.33
2022-11-13T06:18:57.924Z,3.50
2022-11-13T06:21:27.544Z,3.63
2022-11-13T06:23:55.819Z,3.72
2022-11-13T06:26:25.301Z,3.87
2022-11-13T06:28:53.736Z,3.42
2022-11-13T06:31:23.788Z,3.57
2022-11-13T06:33:51.868Z,4.03
2022-11-13T06:36:23.139Z,4.18
2022-11-13T06:38:51.423Z,5.47
2022-11-13T06:41:22.281Z,6.00
2022-11-13T06:43:50.885Z,6.80
2022-11-13T06:46:21.030Z,8.90
2022-11-13T06:48:49.663Z,6.72
2022-11-13T06:51:19.674Z,6.95
2022-11-13T06:53:49.823Z,6.07
2022-11-13T06:56:18.669Z,6.25
2022-11-13T06:58:46.946Z,5.82
2022-11-13T07:01:16.484Z,5.82
2022-11-13T07:03:44.655Z,7.45
2022-11-13T07:06:15.197Z,6.00
2022-11-13T07:08:43.577Z,5.40
2022-11-13T07:11:15.815Z,4.70
2022-11-13T07:13:45.083Z,4.75
2022-11-13T07:16:17.254Z,4.57
2022-11-13T07:18:46.166Z,3.95
2022-11-13T07:21:14.459Z,4.18
2022-11-13T07:23:43.464Z,4.40
2022-11-13T07:26:13.439Z,3.78
2022-11-13T07:28:41.749Z,3.67
2022-11-13T07:31:12.545Z,3.85
2022-11-13T07:33:40.780Z,4.10
2022-11-13T07:36:11.249Z,3.85
2022-11-13T07:38:39.225Z,3.37
2022-11-13T07:41:07.819Z,3.80
2022-11-13T07:43:37.172Z,3.22
2022-11-13T07:46:05.089Z,3.63
2022-11-13T07:48:33.264Z,3.67
2022-11-13T07:51:02.564Z,3.20
2022-11-13T07:53:30.834Z,3.72
2022-11-13T07:56:02.384Z,3.55
2022-11-13T07:58:31.257Z,3.65
2022-11-13T08:01:05.325Z,3.42
2022-11-13T08:03:34.016Z,3.67
2022-11-13T08:06:03.432Z,3.40
2022-11-13T08:08:32.087Z,3.67
2022-11-13T08:11:00.053Z,2.88
2022-11-13T08:13:27.922Z,3.53
2022-11-13T08:15:56.035Z,4.00
2022-11-13T08:18:25.697Z,3.85
2022-11-13T08:20:53.713Z,3.30
2022-11-13T08:23:21.762Z,3.47
2022-11-13T08:25:49.951Z,4.15
2022-11-13T08:28:17.804Z,3.58
2022-11-13T08:30:46.311Z,3.45
2022-11-13T08:33:14.328Z,4.55
2022-11-13T08:35:43.564Z,3.90
2022-11-13T08:38:11.752Z,3.60
2022-11-13T08:40:39.673Z,3.13
2022-11-13T08:43:07.575Z,3.15
2022-11-13T08:45:35.675Z,2.95
2022-11-13T08:48:04.045Z,3.50
2022-11-13T08:50:33.133Z,3.08
2022-11-13T08:53:03.309Z,2.65
2022-11-13T08:55:31.192Z,2.50
2022-11-13T08:58:00.556Z,2.60
2022-11-13T09:00:29.548Z,2.80
2022-11-13T09:02:58.577Z,2.40
2022-11-13T09:05:27.259Z,2.40
2022-11-13T09:07:58.315Z,2.80
2022-11-13T09:10:27.983Z,2.28
2022-11-13T09:12:59.637Z,2.83
2022-11-13T09:15:27.605Z,2.65
2022-11-13T09:17:58.158Z,2.50
2022-11-13T09:20:26.729Z,2.40
2022-11-13T09:22:59.284Z,2.38
2022-11-13T09:25:35.843Z,2.22
2022-11-13T09:28:05.973Z,2.42
2022-11-13T09:30:34.075Z,2.47
2022-11-13T09:33:02.509Z,2.90
2022-11-13T09:35:35.183Z,2.95
2022-11-13T09:38:09.629Z,2.50
2022-11-13T09:40:45.228Z,2.50
2022-11-13T09:43:24.600Z,2.38
2022-11-13T09:45:55.495Z,2.20
2022-11-13T09:48:31.319Z,1.92
2022-11-13T09:51:02.523Z,2.30
2022-11-13T09:53:36.316Z,2.08
2022-11-13T09:56:16.323Z,2.20
2022-11-13T09:58:52.969Z,2.28
2022-11-13T10:01:27.359Z,2.30
2022-11-13T10:04:04.160Z,2.10
2022-11-13T10:06:45.545Z,2.42
2022-11-13T10:09:23.248Z,2.20
2022-11-13T10:11:56.835Z,2.15
2022-11-13T10:14:31.063Z,2.00
2022-11-13T10:17:04.285Z,2.40
2022-11-13T10:19:39.870Z,2.38
2022-11-13T10:22:34.374Z,2.22
2022-11-13T10:25:12.864Z,2.25
2022-11-13T10:27:42.450Z,2.40
2022-11-13T10:30:21.703Z,2.15
2022-11-13T10:32:50.334Z,2.35
2022-11-13T10:35:33.920Z,2.42
2022-11-13T10:38:08.573Z,2.60
2022-11-13T10:40:38.269Z,2.25
2022-11-13T10:43:14.811Z,3.13
2022-11-13T10:45:43.673Z,2.60
2022-11-13T10:48:21.979Z,2.90
2022-11-13T10:50:58.800Z,2.35
2022-11-13T10:53:29.123Z,2.08
2022-11-13T10:55:58.983Z,2.22
2022-11-13T10:58:28.788Z,2.25
2022-11-13T11:00:57.066Z,2.75
2022-11-13T11:03:27.158Z,2.35
2022-11-13T11:05:56.742Z,2.70
2022-11-13T11:08:31.219Z,2.60
2022-11-13T11:11:24.558Z,2.83
2022-11-13T11:13:54.138Z,2.90
2022-11-13T11:16:25.024Z,3.13
2022-11-13T11:18:57.080Z,3.30
2022-11-13T11:21:30.258Z,3.25
2022-11-13T11:24:02.176Z,3.17
2022-11-13T11:26:35.580Z,2.70
2022-11-13T11:29:14.491Z,3.38
2022-11-13T11:31:50.115Z,3.03
2022-11-13T11:34:23.500Z,2.85
2022-11-13T11:36:59.551Z,2.45
2022-11-13T11:39:31.104Z,1.90
2022-11-13T11:42:11.105Z,1.80
2022-11-13T11:44:55.397Z,2.50
2022-11-13T11:47:23.613Z,2.22
2022-11-13T11:49:51.625Z,2.13
2022-11-13T11:52:35.873Z,2.28
2022-11-13T11:55:18.949Z,2.55
2022-11-13T11:57:56.797Z,3.05
2022-11-13T12:00:30.781Z,1.73
2022-11-13T12:03:44.219Z,3.03
2022-11-13T12:06:20.561Z,2.13
2022-11-13T12:08:56.200Z,1.95
2022-11-13T12:11:30.505Z,2.47
2022-11-13T12:14:07.855Z,2.22
2022-11-13T12:16:48.507Z,2.80
2022-11-13T12:19:26.561Z,2.00
2022-11-13T12:22:04.072Z,1.98
2022-11-13T12:24:54.548Z,2.05
2022-11-13T12:27:30.808Z,1.80
2022-11-13T12:30:09.973Z,2.47
2022-11-13T12:33:03.459Z,2.60
2022-11-13T12:35:32.261Z,2.80
2022-11-13T12:38:07.308Z,2.45
2022-11-13T12:40:44.302Z,2.10
2022-11-13T12:43:35.272Z,2.10
2022-11-13T12:46:09.351Z,1.88
2022-11-13T12:48:40.776Z,2.03
2022-11-13T12:51:11.107Z,2.08
2022-11-13T12:53:47.528Z,1.83
2022-11-13T12:56:18.795Z,2.15
2022-11-13T12:59:29.163Z,2.20
2022-11-13T13:01:56.419Z,2.53
2022-11-13T13:04:39.159Z,1.98
2022-11-13T13:07:23.085Z,2.17
2022-11-13T13:10:07.132Z,2.10
2022-11-13T13:12:45.673Z,1.60
2022-11-13T13:15:34.220Z,2.15
2022-11-13T13:18:08.406Z,1.85
2022-11-13T13:20:39.990Z,1.70
2022-11-13T13:23:12.865Z,2.05
2022-11-13T13:25:42.017Z,2.15
2022-11-13T13:28:24.240Z,1.80
2022-11-13T13:31:02.630Z,2.17
2022-11-13T13:33:45.044Z,2.17
2022-11-13T13:36:24.505Z,2.00
2022-11-13T13:38:58.334Z,1.77
2022-11-13T13:41:40.681Z,1.60
2022-11-13T13:44:30.955Z,2.03
2022-11-13T13:46:59.311Z,2.78
2022-11-13T13:49:29.603Z,2.45
2022-11-13T13:51:59.327Z,2.70
2022-11-13T13:54:31.203Z,2.60
2022-11-13T13:56:59.362Z,2.42
2022-11-13T13:59:31.837Z,2.90
2022-11-13T14:02:01.853Z,2.05
2022-11-13T14:04:31.379Z,1.98
2022-11-13T14:07:02.101Z,2.92
2022-11-13T14:09:31.765Z,2.50
2022-11-13T14:12:06.179Z,2.83
2022-11-13T14:14:40.767Z,2.40
2022-11-13T14:17:11.472Z,2.97
2022-11-13T14:19:40.737Z,3.00
2022-11-13T14:22:13.423Z,3.60
2022-11-13T14:24:47.601Z,3.22
2022-11-13T14:27:19.991Z,2.75
2022-11-13T14:29:50.603Z,3.15
2022-11-13T14:32:22.400Z,3.38
2022-11-13T14:34:52.205Z,3.15
2022-11-13T14:37:27.377Z,3.63
2022-11-13T14:39:56.953Z,2.78
2022-11-13T14:42:29.597Z,3.33
2022-11-13T14:45:14.137Z,2.83
2022-11-13T14:47:42.334Z,2.55
2022-11-13T14:50:21.477Z,2.65
2022-11-13T14:52:59.730Z,3.08
2022-11-13T14:55:29.747Z,2.50
2022-11-13T14:57:58.012Z,2.67
2022-11-13T15:00:33.040Z,2.80
2022-11-13T15:03:02.663Z,3.45
2022-11-13T15:05:30.864Z,2.45
2022-11-13T15:08:00.551Z,2.70
2022-11-13T15:10:30.378Z,3.35
2022-11-13T15:12:58.345Z,3.75
2022-11-13T15:15:31.068Z,3.97
2022-11-13T15:17:59.053Z,3.65
2022-11-13T15:20:30.002Z,3.00
2022-11-13T15:23:01.027Z,3.00
2022-11-13T15:25:29.108Z,3.75
2022-11-13T15:27:56.989Z,3.38
2022-11-13T15:30:25.108Z,3.50
2022-11-13T15:32:54.191Z,3.40
2022-11-13T15:35:22.262Z,3.33
2022-11-13T15:37:50.934Z,3.10
2022-11-13T15:40:20.212Z,3.05
2022-11-13T15:42:48.334Z,4.25
2022-11-13T15:45:17.637Z,2.97
2022-11-13T15:47:45.649Z,3.47
2022-11-13T15:50:15.282Z,3.17
2022-11-13T15:52:47.189Z,2.83
2022-11-13T15:55:25.484Z,3.00
2022-11-13T15:57:54.998Z,3.03
2022-11-13T16:00:26.354Z,3.38
2022-11-13T16:02:55.905Z,3.33
2022-11-13T16:05:25.612Z,2.80
2022-11-13T16:07:53.882Z,3.20
2022-11-13T16:10:25.315Z,2.83
2022-11-13T16:12:53.810Z,2.63
2022-11-13T16:15:21.810Z,3.90
2022-11-13T16:17:55.158Z,3.45
2022-11-13T16:20:23.129Z,3.22
2022-11-13T16:22:51.248Z,3.55
2022-11-13T16:25:21.567Z,3.60
2022-11-13T16:27:52.072Z,3.00
2022-11-13T16:30:23.124Z,2.95
2022-11-13T16:32:51.059Z,3.78
2022-11-13T16:35:20.903Z,3.47
2022-11-13T16:37:49.246Z,3.47
2022-11-13T16:40:25.950Z,3.45
2022-11-13T16:42:55.440Z,3.00
2022-11-13T16:45:23.398Z,2.80
2022-11-13T16:47:51.618Z,3.15
2022-11-13T16:50:24.147Z,3.22
2022-11-13T16:52:52.164Z,3.60
2022-11-13T16:55:20.188Z,4.82
2022-11-13T16:57:48.079Z,3.75
2022-11-13T17:00:20.525Z,4.40
2022-11-13T17:02:51.167Z,3.38
2022-11-13T17:05:20.108Z,4.07
2022-11-13T17:07:48.141Z,3.95
2022-11-13T17:10:31.429Z,4.03
2022-11-13T17:13:00.415Z,3.22
2022-11-13T17:15:29.873Z,3.67
2022-11-13T17:17:58.522Z,4.13
2022-11-13T17:20:26.605Z,3.80
2022-11-13T17:22:54.620Z,4.32
2022-11-13T17:25:26.499Z,3.90
2022-11-13T17:27:54.728Z,5.00
2022-11-13T17:30:22.866Z,3.78
2022-11-13T17:32:52.304Z,4.32
2022-11-13T17:35:20.265Z,4.05
2022-11-13T17:37:48.234Z,3.95
2022-11-13T17:40:16.724Z,4.25
2022-11-13T17:42:45.103Z,4.85
2022-11-13T17:45:13.141Z,4.70
2022-11-13T17:47:41.214Z,4.57
2022-11-13T17:50:11.156Z,5.03
2022-11-13T17:52:39.210Z,4.00
2022-11-13T17:55:10.716Z,4.75
2022-11-13T17:57:39.045Z,4.20
2022-11-13T18:00:10.781Z,4.10
2022-11-13T18:02:39.637Z,3.85
2022-11-13T18:05:10.186Z,4.10
2022-11-13T18:07:40.310Z,4.00
2022-11-13T18:10:10.957Z,4.15
2022-11-13T18:12:38.919Z,4.47
2022-11-13T18:15:07.494Z,4.25
2022-11-13T18:17:35.611Z,4.03
2022-11-13T18:20:03.476Z,4.45
2022-11-13T18:22:31.744Z,3.55
2022-11-13T18:25:01.565Z,3.88
2022-11-13T18:27:29.600Z,4.65
2022-11-13T18:29:57.733Z,4.28
2022-11-13T18:32:25.961Z,4.28
2022-11-13T18:34:54.329Z,4.55
2022-11-13T18:37:22.513Z,4.68
2022-11-13T18:39:50.597Z,5.10
2022-11-13T18:42:19.858Z,4.38
2022-11-13T18:44:47.996Z,4.35
2022-11-13T18:47:15.987Z,4.40
2022-11-13T18:49:43.844Z,4.65
2022-11-13T18:52:11.856Z,3.80
2022-11-13T18:54:39.948Z,3.88
2022-11-13T18:57:07.896Z,4.38
2022-11-13T18:59:37.304Z,4.07
2022-11-13T19:02:05.545Z,4.70
2022-11-13T19:04:35.552Z,4.15
2022-11-13T19:07:03.568Z,4.85
2022-11-13T19:09:31.693Z,5.28
2022-11-13T19:11:59.598Z,5.07
2022-11-13T19:14:27.569Z,5.30
2022-11-13T19:16:56.940Z,5.13
2022-11-13T19:19:25.060Z,5.45
2022-11-13T19:21:53.070Z,5.22
2022-11-13T19:24:21.080Z,5.00
2022-11-13T19:26:48.978Z,5.00
2022-11-13T19:29:17.303Z,4.60
2022-11-13T19:31:48.058Z,5.90
2022-11-13T19:34:17.384Z,5.45
2022-11-13T19:36:46.520Z,5.65
2022-11-13T19:39:15.657Z,5.68
2022-11-13T19:41:43.633Z,5.57
2022-11-13T19:44:11.714Z,5.88
2022-11-13T19:46:39.629Z,5.63
2022-11-13T19:49:08.196Z,6.70
2022-11-13T19:51:37.646Z,6.22
2022-11-13T19:54:05.608Z,6.88
2022-11-13T19:56:33.460Z,7.40
2022-11-13T19:59:01.365Z,7.43
2022-11-13T20:01:32.121Z,7.15
2022-11-13T20:04:01.913Z,8.98
2022-11-13T20:06:31.718Z,8.73
2022-11-13T20:09:01.784Z,9.00
2022-11-13T20:11:29.943Z,9.55
2022-11-13T20:13:58.490Z,9.00
2022-11-13T20:16:26.725Z,10.35
2022-11-13T20:18:58.212Z,10.25
2022-11-13T20:21:27.181Z,10.23
2022-11-13T20:23:57.852Z,11.88
2022-11-13T20:26:27.666Z,12.57
2022-11-13T20:28:55.611Z,10.65
2022-11-13T20:31:25.135Z,10.48
2022-11-13T20:33:55.395Z,10.20
2022-11-13T20:36:24.458Z,9.90
2022-11-13T20:38:54.115Z,9.18
2022-11-13T20:41:24.230Z,9.95
2022-11-13T20:43:55.827Z,9.48
2022-11-13T20:46:24.047Z,7.93
2022-11-13T20:48:52.165Z,7.00
2022-11-13T20:51:21.508Z,7.55
2022-11-13T20:53:49.980Z,5.97
2022-11-13T20:56:18.964Z,5.32
2022-11-13T20:58:47.252Z,6.53
2022-11-13T21:01:18.601Z,6.07
2022-11-13T21:03:47.508Z,6.55
2022-11-13T21:06:17.587Z,6.50
2022-11-13T21:08:46.149Z,6.28
2022-11-13T21:11:16.713Z,5.90
2022-11-13T21:13:44.769Z,7.18
2022-11-13T21:16:12.857Z,7.13
2022-11-13T21:18:42.455Z,6.97
2022-11-13T21:21:11.969Z,6.43
2022-11-13T21:23:39.949Z,5.10
2022-11-13T21:26:09.933Z,4.22
2022-11-13T21:28:38.560Z,4.00
2022-11-13T21:31:09.230Z,3.95
2022-11-13T21:33:38.755Z,3.72
2022-11-13T21:36:11.975Z,4.32
2022-11-13T21:38:40.409Z,3.88
2022-11-13T21:41:25.044Z,3.63
2022-11-13T21:43:56.924Z,3.83
2022-11-13T21:46:27.606Z,5.40
2022-11-13T21:48:58.236Z,4.32
2022-11-13T21:51:28.119Z,5.07
2022-11-13T21:53:56.204Z,5.97
2022-11-13T21:56:24.889Z,5.30
2022-11-13T21:58:53.208Z,5.03
2022-11-13T22:01:23.546Z,5.72
2022-11-13T22:03:51.871Z,5.82
2022-11-13T22:06:22.840Z,6.40
2022-11-13T22:08:58.681Z,6.10
2022-11-13T22:11:28.130Z,7.05
2022-11-13T22:13:56.560Z,5.95
2022-11-13T22:16:26.013Z,6.20
2022-11-13T22:18:55.603Z,5.60
2022-11-13T22:21:24.198Z,6.40
2022-11-13T22:23:52.641Z,6.35
2022-11-13T22:26:23.384Z,7.28
2022-11-13T22:28:51.998Z,6.43
2022-11-13T22:31:21.688Z,6.50
2022-11-13T22:33:54.418Z,5.75
2022-11-13T22:36:25.762Z,5.95
2022-11-13T22:38:54.368Z,5.65
2022-11-13T22:41:25.511Z,5.65
2022-11-13T22:43:55.223Z,6.18
2022-11-13T22:46:27.718Z,6.38
2022-11-13T22:48:57.281Z,4.43
2022-11-13T22:51:27.004Z,5.95
2022-11-13T22:53:56.939Z,6.30
2022-11-13T22:56:28.103Z,5.93
2022-11-13T22:58:57.247Z,6.10
2022-11-13T23:01:27.414Z,5.70
2022-11-13T23:03:56.963Z,6.40
2022-11-13T23:06:26.868Z,6.15
2022-11-13T23:08:55.295Z,6.22
2022-11-13T23:11:25.468Z,5.97
2022-11-13T23:13:56.741Z,6.50
2022-11-13T23:16:26.330Z,5.28
2022-11-13T23:18:56.338Z,6.40
2022-11-13T23:21:25.211Z,6.60
2022-11-13T23:23:53.792Z,7.05
2022-11-13T23:26:22.426Z,6.43
2022-11-13T23:28:50.408Z,7.00
2022-11-13T23:31:19.845Z,7.30
2022-11-13T23:33:48.449Z,7.10
2022-11-13T23:36:18.069Z,8.63
2022-11-13T23:38:46.498Z,7.97
2022-11-13T23:41:14.495Z,7.78
2022-11-13T23:46:31.988Z,7.93
2022-11-13T23:49:00.903Z,7.50
2022-11-13T23:51:28.762Z,8.30
2022-11-13T23:53:56.837Z,9.07
2022-11-13T23:56:24.823Z,8.43
2022-11-13T23:58:53.529Z,8.85
